sensor_id;sensor_type;location;lat;lon;timestamp;temperature;humidity
5647;DHT22;2845;48.626;9.362;2023-05-16T00:00:00;10.60;99.90
5647;DHT22;2845;48.626;9.362;2023-05-16T00:02:38;9.80;99.90
5647;DHT22;2845;48.626;9.362;2023-05-16T00:05:13;9.70;99.90
5647;DHT22;2845;48.626;9.362;2023-05-16T00:07:47;11.60;99.90
5647;DHT22;2845;48.626;9.362;2023-05-16T00:10:21;11.20;99.90
5647;DHT22;2845;48.626;9.362;2023-05-16T00:12:55;10.10;99.90
5647;DHT22;2845;48.626;9.362;2023-05-16T00:15:31;9.60;99.90
5647;DHT22;2845;48.626;9.362;2023-05-16T00:18:06;9.60;99.90
5647;DHT22;2845;48.626;9.362;2023-05-16T00:20:41;11.10;99.90
5647;DHT22;2845;48.626;9.362;2023-05-16T00:23:15;9.70;99.90
5647;DHT22;2845;48.626;9.362;2023-05-16T00:25:49;9.60;99.90
5647;DHT22;2845;48.626;9.362;2023-05-16T00:28:24;9.50;99.90
5647;DHT22;2845;48.626;9.362;2023-05-16T00:30:59;9.50;99.90
5647;DHT22;2845;48.626;9.362;2023-05-16T00:33:33;9.40;99.90
5647;DHT22;2845;48.626;9.362;2023-05-16T00:36:08;9.40;99.90
5647;DHT22;2845;48.626;9.362;2023-05-16T00:38:43;9.40;99.90
5647;DHT22;2845;48.626;9.362;2023-05-16T00:41:17;9.40;99.90
5647;DHT22;2845;48.626;9.362;2023-05-16T00:43:51;9.30;99.90
5647;DHT22;2845;48.626;9.362;2023-05-16T00:46:27;9.20;99.90
5647;DHT22;2845;48.626;9.362;2023-05-16T00:49:01;11.10;99.90
5647;DHT22;2845;48.626;9.362;2023-05-16T00:51:37;9.10;99.90
5647;DHT22;2845;48.626;9.362;2023-05-16T00:54:12;9.20;99.90
5647;DHT22;2845;48.626;9.362;2023-05-16T00:56:46;9.10;99.90
5647;DHT22;2845;48.626;9.362;2023-05-16T00:59:21;9.20;99.90
5647;DHT22;2845;48.626;9.362;2023-05-16T01:01:56;9.30;99.90
5647;DHT22;2845;48.626;9.362;2023-05-16T01:04:31;10.80;99.90
5647;DHT22;2845;48.626;9.362;2023-05-16T01:07:06;9.20;99.90
5647;DHT22;2845;48.626;9.362;2023-05-16T01:09:40;9.60;99.90
5647;DHT22;2845;48.626;9.362;2023-05-16T01:12:20;9.20;99.90
5647;DHT22;2845;48.626;9.362;2023-05-16T01:15:03;9.50;99.90
5647;DHT22;2845;48.626;9.362;2023-05-16T01:17:56;9.20;99.90
5647;DHT22;2845;48.626;9.362;2023-05-16T01:20:40;9.10;99.90
5647;DHT22;2845;48.626;9.362;2023-05-16T01:23:26;9.20;99.90
5647;DHT22;2845;48.626;9.362;2023-05-16T01:26:19;9.00;99.90
5647;DHT22;2845;48.626;9.362;2023-05-16T01:28:55;9.00;99.90
5647;DHT22;2845;48.626;9.362;2023-05-16T01:31:29;9.00;99.90
5647;DHT22;2845;48.626;9.362;2023-05-16T01:34:03;10.10;99.90
5647;DHT22;2845;48.626;9.362;2023-05-16T01:36:42;9.10;99.90
5647;DHT22;2845;48.626;9.362;2023-05-16T01:39:21;9.10;99.90
5647;DHT22;2845;48.626;9.362;2023-05-16T01:42:03;9.10;99.90
5647;DHT22;2845;48.626;9.362;2023-05-16T01:44:42;9.20;99.90
5647;DHT22;2845;48.626;9.362;2023-05-16T01:47:19;10.90;99.90
5647;DHT22;2845;48.626;9.362;2023-05-16T01:50:00;9.10;99.90
5647;DHT22;2845;48.626;9.362;2023-05-16T01:52:42;9.30;99.90
5647;DHT22;2845;48.626;9.362;2023-05-16T01:55:23;9.70;99.90
5647;DHT22;2845;48.626;9.362;2023-05-16T01:58:06;9.30;99.90
5647;DHT22;2845;48.626;9.362;2023-05-16T02:00:41;9.40;99.90
5647;DHT22;2845;48.626;9.362;2023-05-16T02:03:16;9.40;99.90
5647;DHT22;2845;48.626;9.362;2023-05-16T02:05:51;9.40;99.90
5647;DHT22;2845;48.626;9.362;2023-05-16T02:08:26;9.50;99.90
5647;DHT22;2845;48.626;9.362;2023-05-16T02:11:00;9.60;99.90
5647;DHT22;2845;48.626;9.362;2023-05-16T02:13:36;9.60;99.90
5647;DHT22;2845;48.626;9.362;2023-05-16T02:16:10;10.60;99.90
5647;DHT22;2845;48.626;9.362;2023-05-16T02:18:44;9.80;99.90
5647;DHT22;2845;48.626;9.362;2023-05-16T02:21:18;9.80;99.90
5647;DHT22;2845;48.626;9.362;2023-05-16T02:23:53;9.90;99.90
5647;DHT22;2845;48.626;9.362;2023-05-16T02:26:27;9.90;99.90
5647;DHT22;2845;48.626;9.362;2023-05-16T02:29:02;11.00;99.90
5647;DHT22;2845;48.626;9.362;2023-05-16T02:31:37;13.40;99.90
5647;DHT22;2845;48.626;9.362;2023-05-16T02:34:11;12.70;99.90
5647;DHT22;2845;48.626;9.362;2023-05-16T02:36:45;10.10;99.90
5647;DHT22;2845;48.626;9.362;2023-05-16T02:39:19;12.70;99.90
5647;DHT22;2845;48.626;9.362;2023-05-16T02:41:53;12.30;99.90
5647;DHT22;2845;48.626;9.362;2023-05-16T02:44:29;10.30;99.90
5647;DHT22;2845;48.626;9.362;2023-05-16T02:47:03;10.60;99.90
5647;DHT22;2845;48.626;9.362;2023-05-16T02:49:37;10.20;99.90
5647;DHT22;2845;48.626;9.362;2023-05-16T02:52:11;12.00;99.90
5647;DHT22;2845;48.626;9.362;2023-05-16T02:54:46;11.30;99.90
5647;DHT22;2845;48.626;9.362;2023-05-16T02:57:40;10.50;99.90
5647;DHT22;2845;48.626;9.362;2023-05-16T03:00:16;10.50;99.90
5647;DHT22;2845;48.626;9.362;2023-05-16T03:02:51;10.50;99.90
5647;DHT22;2845;48.626;9.362;2023-05-16T03:05:25;10.60;99.90
5647;DHT22;2845;48.626;9.362;2023-05-16T03:08:00;10.90;99.90
5647;DHT22;2845;48.626;9.362;2023-05-16T03:10:34;12.70;99.90
5647;DHT22;2845;48.626;9.362;2023-05-16T03:13:08;10.60;99.90
5647;DHT22;2845;48.626;9.362;2023-05-16T03:15:44;10.60;99.90
5647;DHT22;2845;48.626;9.362;2023-05-16T03:18:19;10.60;99.90
5647;DHT22;2845;48.626;9.362;2023-05-16T03:20:53;10.70;99.90
5647;DHT22;2845;48.626;9.362;2023-05-16T03:23:28;10.80;99.90
5647;DHT22;2845;48.626;9.362;2023-05-16T03:26:02;10.70;99.90
5647;DHT22;2845;48.626;9.362;2023-05-16T03:28:36;12.90;99.90
5647;DHT22;2845;48.626;9.362;2023-05-16T03:31:11;10.80;99.90
5647;DHT22;2845;48.626;9.362;2023-05-16T03:33:46;10.90;99.90
5647;DHT22;2845;48.626;9.362;2023-05-16T03:36:21;10.80;99.90
5647;DHT22;2845;48.626;9.362;2023-05-16T03:38:55;10.80;99.90
5647;DHT22;2845;48.626;9.362;2023-05-16T03:41:30;10.80;99.90
5647;DHT22;2845;48.626;9.362;2023-05-16T03:44:04;10.80;99.90
5647;DHT22;2845;48.626;9.362;2023-05-16T03:46:39;10.90;99.90
5647;DHT22;2845;48.626;9.362;2023-05-16T03:49:13;11.30;99.90
5647;DHT22;2845;48.626;9.362;2023-05-16T03:51:48;11.10;99.90
5647;DHT22;2845;48.626;9.362;2023-05-16T03:54:22;11.00;99.90
5647;DHT22;2845;48.626;9.362;2023-05-16T03:56:56;11.90;99.90
5647;DHT22;2845;48.626;9.362;2023-05-16T03:59:30;11.00;99.90
5647;DHT22;2845;48.626;9.362;2023-05-16T04:02:07;11.60;99.90
5647;DHT22;2845;48.626;9.362;2023-05-16T04:04:41;12.30;99.90
5647;DHT22;2845;48.626;9.362;2023-05-16T04:07:16;11.00;99.90
5647;DHT22;2845;48.626;9.362;2023-05-16T04:09:50;11.40;99.90
5647;DHT22;2845;48.626;9.362;2023-05-16T04:12:24;11.70;99.90
5647;DHT22;2845;48.626;9.362;2023-05-16T04:14:58;11.10;99.90
5647;DHT22;2845;48.626;9.362;2023-05-16T04:17:34;11.20;99.90
5647;DHT22;2845;48.626;9.362;2023-05-16T04:20:09;11.60;99.90
5647;DHT22;2845;48.626;9.362;2023-05-16T04:22:45;11.20;99.90
5647;DHT22;2845;48.626;9.362;2023-05-16T04:25:19;11.20;99.90
5647;DHT22;2845;48.626;9.362;2023-05-16T04:27:53;13.20;99.90
5647;DHT22;2845;48.626;9.362;2023-05-16T04:30:27;12.10;99.90
5647;DHT22;2845;48.626;9.362;2023-05-16T04:33:03;11.30;99.90
5647;DHT22;2845;48.626;9.362;2023-05-16T04:35:37;11.40;99.90
5647;DHT22;2845;48.626;9.362;2023-05-16T04:38:12;11.40;99.90
5647;DHT22;2845;48.626;9.362;2023-05-16T04:40:46;13.00;99.90
5647;DHT22;2845;48.626;9.362;2023-05-16T04:43:22;11.40;99.90
5647;DHT22;2845;48.626;9.362;2023-05-16T04:45:56;12.20;99.90
5647;DHT22;2845;48.626;9.362;2023-05-16T04:48:32;11.70;99.90
5647;DHT22;2845;48.626;9.362;2023-05-16T04:51:07;12.70;99.90
5647;DHT22;2845;48.626;9.362;2023-05-16T04:53:41;13.60;99.90
5647;DHT22;2845;48.626;9.362;2023-05-16T04:56:15;11.60;99.90
5647;DHT22;2845;48.626;9.362;2023-05-16T04:58:49;11.60;99.90
5647;DHT22;2845;48.626;9.362;2023-05-16T05:01:23;12.80;99.90
5647;DHT22;2845;48.626;9.362;2023-05-16T05:03:59;13.40;99.90
5647;DHT22;2845;48.626;9.362;2023-05-16T05:06:33;11.70;99.90
5647;DHT22;2845;48.626;9.362;2023-05-16T05:09:07;11.70;99.90
5647;DHT22;2845;48.626;9.362;2023-05-16T05:11:42;12.30;99.90
5647;DHT22;2845;48.626;9.362;2023-05-16T05:14:16;11.70;99.90
5647;DHT22;2845;48.626;9.362;2023-05-16T05:16:51;11.80;99.90
5647;DHT22;2845;48.626;9.362;2023-05-16T05:19:26;11.80;99.90
5647;DHT22;2845;48.626;9.362;2023-05-16T05:22:00;11.90;99.90
5647;DHT22;2845;48.626;9.362;2023-05-16T05:24:34;12.00;99.90
5647;DHT22;2845;48.626;9.362;2023-05-16T05:27:09;12.20;99.90
5647;DHT22;2845;48.626;9.362;2023-05-16T05:29:43;12.10;99.90
5647;DHT22;2845;48.626;9.362;2023-05-16T05:32:17;12.70;99.90
5647;DHT22;2845;48.626;9.362;2023-05-16T05:34:52;12.20;99.90
5647;DHT22;2845;48.626;9.362;2023-05-16T05:37:27;12.30;99.90
5647;DHT22;2845;48.626;9.362;2023-05-16T05:40:01;13.10;99.90
5647;DHT22;2845;48.626;9.362;2023-05-16T05:42:36;12.30;99.90
5647;DHT22;2845;48.626;9.362;2023-05-16T05:45:10;15.10;99.90
5647;DHT22;2845;48.626;9.362;2023-05-16T05:47:44;12.40;99.90
5647;DHT22;2845;48.626;9.362;2023-05-16T05:50:20;12.60;99.90
5647;DHT22;2845;48.626;9.362;2023-05-16T05:52:54;13.70;99.90
5647;DHT22;2845;48.626;9.362;2023-05-16T05:55:28;12.70;99.90
5647;DHT22;2845;48.626;9.362;2023-05-16T05:58:02;12.70;99.90
5647;DHT22;2845;48.626;9.362;2023-05-16T06:00:39;12.80;99.90
5647;DHT22;2845;48.626;9.362;2023-05-16T06:03:13;12.80;99.90
5647;DHT22;2845;48.626;9.362;2023-05-16T06:05:49;12.80;99.90
5647;DHT22;2845;48.626;9.362;2023-05-16T06:08:24;12.70;99.90
5647;DHT22;2845;48.626;9.362;2023-05-16T06:10:58;12.70;99.90
5647;DHT22;2845;48.626;9.362;2023-05-16T06:13:33;12.60;99.90
5647;DHT22;2845;48.626;9.362;2023-05-16T06:16:07;12.60;99.90
5647;DHT22;2845;48.626;9.362;2023-05-16T06:18:42;12.60;99.90
5647;DHT22;2845;48.626;9.362;2023-05-16T06:21:18;12.80;99.90
5647;DHT22;2845;48.626;9.362;2023-05-16T06:23:53;12.60;99.90
5647;DHT22;2845;48.626;9.362;2023-05-16T06:26:27;12.70;99.90
5647;DHT22;2845;48.626;9.362;2023-05-16T06:29:02;13.00;99.90
5647;DHT22;2845;48.626;9.362;2023-05-16T06:31:36;12.60;99.90
5647;DHT22;2845;48.626;9.362;2023-05-16T06:34:11;13.10;99.90
5647;DHT22;2845;48.626;9.362;2023-05-16T06:36:46;12.70;99.90
5647;DHT22;2845;48.626;9.362;2023-05-16T06:39:20;12.70;99.90
5647;DHT22;2845;48.626;9.362;2023-05-16T06:41:55;13.60;99.90
5647;DHT22;2845;48.626;9.362;2023-05-16T06:44:29;12.70;99.90
5647;DHT22;2845;48.626;9.362;2023-05-16T06:47:04;12.70;99.90
5647;DHT22;2845;48.626;9.362;2023-05-16T06:49:39;12.70;99.90
5647;DHT22;2845;48.626;9.362;2023-05-16T06:52:15;13.30;99.90
5647;DHT22;2845;48.626;9.362;2023-05-16T06:54:49;13.30;99.90
5647;DHT22;2845;48.626;9.362;2023-05-16T06:57:23;12.80;99.90
5647;DHT22;2845;48.626;9.362;2023-05-16T07:00:00;12.80;99.90
5647;DHT22;2845;48.626;9.362;2023-05-16T07:02:34;12.80;99.90
5647;DHT22;2845;48.626;9.362;2023-05-16T07:05:09;12.80;99.90
5647;DHT22;2845;48.626;9.362;2023-05-16T07:07:44;12.80;99.90
5647;DHT22;2845;48.626;9.362;2023-05-16T07:10:19;13.80;99.90
5647;DHT22;2845;48.626;9.362;2023-05-16T07:12:54;12.90;99.90
5647;DHT22;2845;48.626;9.362;2023-05-16T07:15:30;13.00;99.90
5647;DHT22;2845;48.626;9.362;2023-05-16T07:18:04;12.90;99.90
5647;DHT22;2845;48.626;9.362;2023-05-16T07:20:38;12.90;99.90
5647;DHT22;2845;48.626;9.362;2023-05-16T07:23:14;12.90;99.90
5647;DHT22;2845;48.626;9.362;2023-05-16T07:25:49;12.90;99.90
5647;DHT22;2845;48.626;9.362;2023-05-16T07:28:23;13.60;99.90
5647;DHT22;2845;48.626;9.362;2023-05-16T07:30:58;12.90;99.90
5647;DHT22;2845;48.626;9.362;2023-05-16T07:33:32;12.80;99.90
5647;DHT22;2845;48.626;9.362;2023-05-16T07:36:07;12.70;99.90
5647;DHT22;2845;48.626;9.362;2023-05-16T07:38:50;12.80;99.90
5647;DHT22;2845;48.626;9.362;2023-05-16T07:41:24;12.80;99.90
5647;DHT22;2845;48.626;9.362;2023-05-16T07:43:59;13.50;99.90
5647;DHT22;2845;48.626;9.362;2023-05-16T07:46:33;13.70;99.90
5647;DHT22;2845;48.626;9.362;2023-05-16T07:49:08;12.70;99.90
5647;DHT22;2845;48.626;9.362;2023-05-16T07:51:42;12.70;99.90
5647;DHT22;2845;48.626;9.362;2023-05-16T07:54:18;12.70;99.90
5647;DHT22;2845;48.626;9.362;2023-05-16T07:56:52;12.70;99.90
5647;DHT22;2845;48.626;9.362;2023-05-16T07:59:27;12.60;99.90
5647;DHT22;2845;48.626;9.362;2023-05-16T08:02:01;12.60;99.90
5647;DHT22;2845;48.626;9.362;2023-05-16T08:04:36;14.10;99.90
5647;DHT22;2845;48.626;9.362;2023-05-16T08:07:10;12.60;99.90
5647;DHT22;2845;48.626;9.362;2023-05-16T08:09:46;13.00;99.90
5647;DHT22;2845;48.626;9.362;2023-05-16T08:12:20;12.70;99.90
5647;DHT22;2845;48.626;9.362;2023-05-16T08:14:54;12.70;99.90
5647;DHT22;2845;48.626;9.362;2023-05-16T08:17:29;12.70;99.90
5647;DHT22;2845;48.626;9.362;2023-05-16T08:20:04;12.70;99.90
5647;DHT22;2845;48.626;9.362;2023-05-16T08:22:39;12.70;99.90
5647;DHT22;2845;48.626;9.362;2023-05-16T08:25:14;12.80;99.90
5647;DHT22;2845;48.626;9.362;2023-05-16T08:27:49;12.70;99.90
5647;DHT22;2845;48.626;9.362;2023-05-16T08:30:25;13.50;99.90
5647;DHT22;2845;48.626;9.362;2023-05-16T08:32:59;12.80;99.90
5647;DHT22;2845;48.626;9.362;2023-05-16T08:35:36;12.80;99.90
5647;DHT22;2845;48.626;9.362;2023-05-16T08:38:15;12.90;99.90
5647;DHT22;2845;48.626;9.362;2023-05-16T08:40:50;13.00;99.90
5647;DHT22;2845;48.626;9.362;2023-05-16T08:43:24;12.90;99.80
5647;DHT22;2845;48.626;9.362;2023-05-16T08:45:59;12.90;99.80
5647;DHT22;2845;48.626;9.362;2023-05-16T08:48:34;12.90;99.60
5647;DHT22;2845;48.626;9.362;2023-05-16T08:51:09;12.90;99.60
5647;DHT22;2845;48.626;9.362;2023-05-16T08:53:51;15.20;99.90
5647;DHT22;2845;48.626;9.362;2023-05-16T08:56:31;12.90;99.60
5647;DHT22;2845;48.626;9.362;2023-05-16T08:59:07;13.00;99.50
5647;DHT22;2845;48.626;9.362;2023-05-16T09:01:41;13.00;99.10
5647;DHT22;2845;48.626;9.362;2023-05-16T09:04:16;13.00;99.10
5647;DHT22;2845;48.626;9.362;2023-05-16T09:06:51;13.00;99.00
5647;DHT22;2845;48.626;9.362;2023-05-16T09:09:25;13.10;99.10
5647;DHT22;2845;48.626;9.362;2023-05-16T09:12:01;13.00;98.80
5647;DHT22;2845;48.626;9.362;2023-05-16T09:14:36;12.90;98.90
5647;DHT22;2845;48.626;9.362;2023-05-16T09:17:10;12.80;98.60
5647;DHT22;2845;48.626;9.362;2023-05-16T09:19:45;13.30;98.80
5647;DHT22;2845;48.626;9.362;2023-05-16T09:22:22;12.70;98.80
5647;DHT22;2845;48.626;9.362;2023-05-16T09:24:59;12.80;98.70
5647;DHT22;2845;48.626;9.362;2023-05-16T09:27:34;13.00;99.00
5647;DHT22;2845;48.626;9.362;2023-05-16T09:30:10;12.80;98.70
5647;DHT22;2845;48.626;9.362;2023-05-16T09:32:47;12.80;98.40
5647;DHT22;2845;48.626;9.362;2023-05-16T09:35:22;12.80;98.30
5647;DHT22;2845;48.626;9.362;2023-05-16T09:38:16;13.10;98.50
5647;DHT22;2845;48.626;9.362;2023-05-16T09:40:50;13.70;98.50
5647;DHT22;2845;48.626;9.362;2023-05-16T09:43:26;12.80;98.50
5647;DHT22;2845;48.626;9.362;2023-05-16T09:46:00;13.00;98.60
5647;DHT22;2845;48.626;9.362;2023-05-16T09:48:35;12.90;98.60
5647;DHT22;2845;48.626;9.362;2023-05-16T09:51:11;13.00;98.70
5647;DHT22;2845;48.626;9.362;2023-05-16T09:53:45;12.40;98.50
5647;DHT22;2845;48.626;9.362;2023-05-16T09:56:20;12.90;98.90
5647;DHT22;2845;48.626;9.362;2023-05-16T09:58:55;12.80;99.10
5647;DHT22;2845;48.626;9.362;2023-05-16T10:01:30;12.80;99.20
5647;DHT22;2845;48.626;9.362;2023-05-16T10:04:04;12.90;99.50
5647;DHT22;2845;48.626;9.362;2023-05-16T10:06:42;12.90;99.60
5647;DHT22;2845;48.626;9.362;2023-05-16T10:09:19;13.90;99.70
5647;DHT22;2845;48.626;9.362;2023-05-16T10:11:54;13.40;99.40
5647;DHT22;2845;48.626;9.362;2023-05-16T10:14:34;13.00;99.30
5647;DHT22;2845;48.626;9.362;2023-05-16T10:17:11;15.00;99.90
5647;DHT22;2845;48.626;9.362;2023-05-16T10:19:47;12.90;99.70
5647;DHT22;2845;48.626;9.362;2023-05-16T10:22:25;12.90;99.80
5647;DHT22;2845;48.626;9.362;2023-05-16T10:25:06;12.90;99.50
5647;DHT22;2845;48.626;9.362;2023-05-16T10:27:43;12.90;99.70
5647;DHT22;2845;48.626;9.362;2023-05-16T10:30:19;14.40;99.90
5647;DHT22;2845;48.626;9.362;2023-05-16T10:32:54;12.90;99.90
5647;DHT22;2845;48.626;9.362;2023-05-16T10:35:29;14.80;99.90
5647;DHT22;2845;48.626;9.362;2023-05-16T10:38:04;13.20;99.60
5647;DHT22;2845;48.626;9.362;2023-05-16T10:40:40;10.50;98.90
5647;DHT22;2845;48.626;9.362;2023-05-16T10:43:22;13.30;99.40
5647;DHT22;2845;48.626;9.362;2023-05-16T10:46:02;13.40;99.10
5647;DHT22;2845;48.626;9.362;2023-05-16T10:48:44;13.60;99.30
5647;DHT22;2845;48.626;9.362;2023-05-16T10:51:35;13.40;99.20
5647;DHT22;2845;48.626;9.362;2023-05-16T10:54:11;16.70;99.60
5647;DHT22;2845;48.626;9.362;2023-05-16T10:56:54;13.60;98.80
5647;DHT22;2845;48.626;9.362;2023-05-16T10:59:40;15.30;99.00
5647;DHT22;2845;48.626;9.362;2023-05-16T11:02:25;13.60;98.70
5647;DHT22;2845;48.626;9.362;2023-05-16T11:05:01;13.50;98.70
5647;DHT22;2845;48.626;9.362;2023-05-16T11:07:35;13.50;99.00
5647;DHT22;2845;48.626;9.362;2023-05-16T11:10:14;13.50;99.10
5647;DHT22;2845;48.626;9.362;2023-05-16T11:12:50;13.40;99.10
5647;DHT22;2845;48.626;9.362;2023-05-16T11:15:27;13.90;99.30
5647;DHT22;2845;48.626;9.362;2023-05-16T11:18:07;13.50;99.00
5647;DHT22;2845;48.626;9.362;2023-05-16T11:20:42;13.50;98.80
5647;DHT22;2845;48.626;9.362;2023-05-16T11:23:21;13.50;98.90
5647;DHT22;2845;48.626;9.362;2023-05-16T11:25:57;13.60;98.90
5647;DHT22;2845;48.626;9.362;2023-05-16T11:28:32;13.70;98.70
5647;DHT22;2845;48.626;9.362;2023-05-16T11:31:08;13.80;98.60
5647;DHT22;2845;48.626;9.362;2023-05-16T11:33:44;13.80;98.50
5647;DHT22;2845;48.626;9.362;2023-05-16T11:36:19;14.00;98.40
5647;DHT22;2845;48.626;9.362;2023-05-16T11:39:05;14.10;98.20
5647;DHT22;2845;48.626;9.362;2023-05-16T11:41:41;14.30;98.00
5647;DHT22;2845;48.626;9.362;2023-05-16T11:44:15;14.40;97.70
5647;DHT22;2845;48.626;9.362;2023-05-16T11:46:50;14.40;97.60
5647;DHT22;2845;48.626;9.362;2023-05-16T11:49:26;14.40;97.60
5647;DHT22;2845;48.626;9.362;2023-05-16T11:52:00;14.40;97.50
5647;DHT22;2845;48.626;9.362;2023-05-16T11:54:35;14.40;97.70
5647;DHT22;2845;48.626;9.362;2023-05-16T11:57:10;14.70;97.20
5647;DHT22;2845;48.626;9.362;2023-05-16T11:59:44;14.70;96.80
5647;DHT22;2845;48.626;9.362;2023-05-16T12:02:19;14.70;97.10
5647;DHT22;2845;48.626;9.362;2023-05-16T12:04:55;14.70;97.00
5647;DHT22;2845;48.626;9.362;2023-05-16T12:07:29;14.60;97.00
5647;DHT22;2845;48.626;9.362;2023-05-16T12:10:05;14.40;97.10
5647;DHT22;2845;48.626;9.362;2023-05-16T12:12:43;14.30;97.30
5647;DHT22;2845;48.626;9.362;2023-05-16T12:15:18;14.10;97.40
5647;DHT22;2845;48.626;9.362;2023-05-16T12:17:53;13.90;97.90
5647;DHT22;2845;48.626;9.362;2023-05-16T12:20:30;13.70;98.50
5647;DHT22;2845;48.626;9.362;2023-05-16T12:23:09;13.40;98.90
5647;DHT22;2845;48.626;9.362;2023-05-16T12:25:45;13.20;99.50
5647;DHT22;2845;48.626;9.362;2023-05-16T12:28:21;13.10;99.70
5647;DHT22;2845;48.626;9.362;2023-05-16T12:30:55;13.00;99.90
5647;DHT22;2845;48.626;9.362;2023-05-16T12:33:29;13.00;99.90
5647;DHT22;2845;48.626;9.362;2023-05-16T12:36:12;12.90;99.90
5647;DHT22;2845;48.626;9.362;2023-05-16T12:38:47;12.90;99.90
5647;DHT22;2845;48.626;9.362;2023-05-16T12:41:22;12.70;99.90
5647;DHT22;2845;48.626;9.362;2023-05-16T12:44:05;12.60;99.90
5647;DHT22;2845;48.626;9.362;2023-05-16T12:46:43;12.30;99.90
5647;DHT22;2845;48.626;9.362;2023-05-16T12:49:21;12.00;99.90
5647;DHT22;2845;48.626;9.362;2023-05-16T12:51:56;11.80;99.90
5647;DHT22;2845;48.626;9.362;2023-05-16T12:54:37;11.60;99.90
5647;DHT22;2845;48.626;9.362;2023-05-16T12:57:11;11.60;99.90
5647;DHT22;2845;48.626;9.362;2023-05-16T12:59:45;11.90;99.90
5647;DHT22;2845;48.626;9.362;2023-05-16T13:02:19;11.40;99.90
5647;DHT22;2845;48.626;9.362;2023-05-16T13:04:54;11.30;99.90
5647;DHT22;2845;48.626;9.362;2023-05-16T13:07:30;11.30;99.90
5647;DHT22;2845;48.626;9.362;2023-05-16T13:10:05;11.30;99.90
5647;DHT22;2845;48.626;9.362;2023-05-16T13:12:41;11.30;99.90
5647;DHT22;2845;48.626;9.362;2023-05-16T13:15:16;12.90;99.90
5647;DHT22;2845;48.626;9.362;2023-05-16T13:17:50;11.90;99.90
5647;DHT22;2845;48.626;9.362;2023-05-16T13:20:25;12.80;99.90
5647;DHT22;2845;48.626;9.362;2023-05-16T13:23:02;11.50;99.90
5647;DHT22;2845;48.626;9.362;2023-05-16T13:25:37;12.50;99.90
5647;DHT22;2845;48.626;9.362;2023-05-16T13:28:11;12.00;99.90
5647;DHT22;2845;48.626;9.362;2023-05-16T13:30:45;12.30;99.90
5647;DHT22;2845;48.626;9.362;2023-05-16T13:33:19;11.90;99.90
5647;DHT22;2845;48.626;9.362;2023-05-16T13:35:54;12.10;99.90
5647;DHT22;2845;48.626;9.362;2023-05-16T13:38:30;12.80;99.90
5647;DHT22;2845;48.626;9.362;2023-05-16T13:41:04;10.50;99.90
5647;DHT22;2845;48.626;9.362;2023-05-16T13:43:38;12.00;99.90
5647;DHT22;2845;48.626;9.362;2023-05-16T13:46:13;12.10;99.90
5647;DHT22;2845;48.626;9.362;2023-05-16T13:48:47;12.30;99.90
5647;DHT22;2845;48.626;9.362;2023-05-16T13:51:21;12.60;99.90
5647;DHT22;2845;48.626;9.362;2023-05-16T13:53:57;12.70;99.90
5647;DHT22;2845;48.626;9.362;2023-05-16T13:56:31;12.80;99.90
5647;DHT22;2845;48.626;9.362;2023-05-16T13:59:05;12.90;99.90
5647;DHT22;2845;48.626;9.362;2023-05-16T14:01:42;13.00;99.90
5647;DHT22;2845;48.626;9.362;2023-05-16T14:04:16;13.00;99.90
5647;DHT22;2845;48.626;9.362;2023-05-16T14:06:51;13.00;99.90
5647;DHT22;2845;48.626;9.362;2023-05-16T14:09:27;12.90;99.90
5647;DHT22;2845;48.626;9.362;2023-05-16T14:12:05;12.90;99.90
5647;DHT22;2845;48.626;9.362;2023-05-16T14:14:40;13.00;99.90
5647;DHT22;2845;48.626;9.362;2023-05-16T14:17:14;13.30;99.90
5647;DHT22;2845;48.626;9.362;2023-05-16T14:19:48;13.00;99.90
5647;DHT22;2845;48.626;9.362;2023-05-16T14:22:23;13.00;99.90
5647;DHT22;2845;48.626;9.362;2023-05-16T14:24:58;13.50;99.90
5647;DHT22;2845;48.626;9.362;2023-05-16T14:27:32;13.30;99.90
5647;DHT22;2845;48.626;9.362;2023-05-16T14:30:08;12.60;99.90
5647;DHT22;2845;48.626;9.362;2023-05-16T14:32:42;12.60;99.90
5647;DHT22;2845;48.626;9.362;2023-05-16T14:35:17;12.60;99.90
5647;DHT22;2845;48.626;9.362;2023-05-16T14:37:51;12.60;99.90
5647;DHT22;2845;48.626;9.362;2023-05-16T14:40:27;12.90;99.90
5647;DHT22;2845;48.626;9.362;2023-05-16T14:43:01;13.20;99.90
5647;DHT22;2845;48.626;9.362;2023-05-16T14:45:36;13.50;99.90
5647;DHT22;2845;48.626;9.362;2023-05-16T14:48:12;12.60;99.90
5647;DHT22;2845;48.626;9.362;2023-05-16T14:50:46;12.50;99.90
5647;DHT22;2845;48.626;9.362;2023-05-16T14:53:20;12.60;99.90
5647;DHT22;2845;48.626;9.362;2023-05-16T14:55:56;13.60;99.90
5647;DHT22;2845;48.626;9.362;2023-05-16T14:58:30;12.50;99.90
5647;DHT22;2845;48.626;9.362;2023-05-16T15:01:05;12.50;99.90
5647;DHT22;2845;48.626;9.362;2023-05-16T15:03:39;11.20;99.90
5647;DHT22;2845;48.626;9.362;2023-05-16T15:06:16;12.50;99.90
5647;DHT22;2845;48.626;9.362;2023-05-16T15:08:50;12.50;99.90
5647;DHT22;2845;48.626;9.362;2023-05-16T15:11:27;12.50;99.90
5647;DHT22;2845;48.626;9.362;2023-05-16T15:14:01;12.50;99.80
5647;DHT22;2845;48.626;9.362;2023-05-16T15:16:35;12.40;99.90
5647;DHT22;2845;48.626;9.362;2023-05-16T15:19:10;12.40;99.90
5647;DHT22;2845;48.626;9.362;2023-05-16T15:21:45;12.40;99.90
5647;DHT22;2845;48.626;9.362;2023-05-16T15:24:19;12.40;99.90
5647;DHT22;2845;48.626;9.362;2023-05-16T15:26:57;12.50;99.70
5647;DHT22;2845;48.626;9.362;2023-05-16T15:29:31;12.50;99.40
5647;DHT22;2845;48.626;9.362;2023-05-16T15:32:07;12.90;99.50
5647;DHT22;2845;48.626;9.362;2023-05-16T15:34:43;12.60;99.50
5647;DHT22;2845;48.626;9.362;2023-05-16T15:37:17;12.50;99.30
5647;DHT22;2845;48.626;9.362;2023-05-16T15:39:54;12.40;99.40
5647;DHT22;2845;48.626;9.362;2023-05-16T15:42:30;12.50;99.60
5647;DHT22;2845;48.626;9.362;2023-05-16T15:45:06;12.40;99.60
5647;DHT22;2845;48.626;9.362;2023-05-16T15:47:41;12.40;99.40
5647;DHT22;2845;48.626;9.362;2023-05-16T15:50:15;12.40;99.60
5647;DHT22;2845;48.626;9.362;2023-05-16T15:52:50;12.40;99.70
5647;DHT22;2845;48.626;9.362;2023-05-16T15:55:24;12.30;99.50
5647;DHT22;2845;48.626;9.362;2023-05-16T15:58:00;12.30;99.80
5647;DHT22;2845;48.626;9.362;2023-05-16T16:00:35;12.30;99.90
5647;DHT22;2845;48.626;9.362;2023-05-16T16:03:11;12.30;99.90
5647;DHT22;2845;48.626;9.362;2023-05-16T16:05:45;12.30;99.70
5647;DHT22;2845;48.626;9.362;2023-05-16T16:08:20;12.30;99.40
5647;DHT22;2845;48.626;9.362;2023-05-16T16:10:57;12.30;99.00
5647;DHT22;2845;48.626;9.362;2023-05-16T16:13:33;12.20;99.10
5647;DHT22;2845;48.626;9.362;2023-05-16T16:16:07;12.20;98.80
5647;DHT22;2845;48.626;9.362;2023-05-16T16:18:42;12.90;98.90
5647;DHT22;2845;48.626;9.362;2023-05-16T16:21:18;12.10;98.60
5647;DHT22;2845;48.626;9.362;2023-05-16T16:23:56;12.10;98.70
5647;DHT22;2845;48.626;9.362;2023-05-16T16:26:30;12.20;98.80
5647;DHT22;2845;48.626;9.362;2023-05-16T16:29:06;12.20;98.80
5647;DHT22;2845;48.626;9.362;2023-05-16T16:31:40;12.90;98.60
5647;DHT22;2845;48.626;9.362;2023-05-16T16:34:15;12.20;98.60
5647;DHT22;2845;48.626;9.362;2023-05-16T16:36:52;12.10;98.90
5647;DHT22;2845;48.626;9.362;2023-05-16T16:39:26;12.10;98.90
5647;DHT22;2845;48.626;9.362;2023-05-16T16:42:05;12.10;98.80
5647;DHT22;2845;48.626;9.362;2023-05-16T16:44:41;12.20;99.00
5647;DHT22;2845;48.626;9.362;2023-05-16T16:47:16;12.20;98.50
5647;DHT22;2845;48.626;9.362;2023-05-16T16:49:51;12.10;98.50
5647;DHT22;2845;48.626;9.362;2023-05-16T16:52:25;12.10;98.70
5647;DHT22;2845;48.626;9.362;2023-05-16T16:55:00;12.30;98.80
5647;DHT22;2845;48.626;9.362;2023-05-16T16:57:34;12.20;98.80